sensor_id;sensor_type;location;lat;lon;timestamp;pressure;altitude;pressure_sealevel;temperature;humidity
19112;BME280;9688;51.906;8.376;2022-09-01T00:02:15;101317.38;;;18.22;51.57
19112;BME280;9688;51.906;8.376;2022-09-01T00:05:20;101317.38;;;18.22;52.22
19112;BME280;9688;51.906;8.376;2022-09-01T00:08:24;101314.88;;;18.19;52.36
19112;BME280;9688;51.906;8.376;2022-09-01T00:11:32;101314.09;;;18.17;52.39
19112;BME280;9688;51.906;8.376;2022-09-01T00:14:38;101317.75;;;18.16;52.10
19112;BME280;9688;51.906;8.376;2022-09-01T00:17:43;101315.34;;;18.11;52.69
19112;BME280;9688;51.906;8.376;2022-09-01T00:20:48;101317.34;;;18.08;53.05
19112;BME280;9688;51.906;8.376;2022-09-01T00:23:52;101318.28;;;18.06;52.90
19112;BME280;9688;51.906;8.376;2022-09-01T00:26:58;101322.16;;;18.01;52.62
19112;BME280;9688;51.906;8.376;2022-09-01T00:30:05;101322.53;;;17.95;52.64
19112;BME280;9688;51.906;8.376;2022-09-01T00:33:10;101322.78;;;17.90;53.39
19112;BME280;9688;51.906;8.376;2022-09-01T00:36:16;101324.91;;;17.85;53.33
19112;BME280;9688;51.906;8.376;2022-09-01T00:39:21;101323.31;;;17.81;53.51
19112;BME280;9688;51.906;8.376;2022-09-01T00:42:27;101322.53;;;17.79;53.29
19112;BME280;9688;51.906;8.376;2022-09-01T00:45:31;101331.69;;;17.75;53.74
19112;BME280;9688;51.906;8.376;2022-09-01T00:48:36;101318.47;;;17.72;54.16
19112;BME280;9688;51.906;8.376;2022-09-01T00:51:50;101314.25;;;17.68;54.32
19112;BME280;9688;51.906;8.376;2022-09-01T00:54:58;101316.16;;;17.66;53.99
19112;BME280;9688;51.906;8.376;2022-09-01T00:58:06;101316.34;;;17.63;54.09
19112;BME280;9688;51.906;8.376;2022-09-01T01:01:11;101320.97;;;17.59;54.12
19112;BME280;9688;51.906;8.376;2022-09-01T01:04:16;101309.69;;;17.54;54.24
19112;BME280;9688;51.906;8.376;2022-09-01T01:07:21;101311.59;;;17.52;54.57
19112;BME280;9688;51.906;8.376;2022-09-01T01:10:30;101311.66;;;17.50;54.32
19112;BME280;9688;51.906;8.376;2022-09-01T01:13:52;101312.03;;;17.44;54.76
19112;BME280;9688;51.906;8.376;2022-09-01T01:16:58;101309.59;;;17.39;55.17
19112;BME280;9688;51.906;8.376;2022-09-01T01:20:07;101305.47;;;17.34;54.87
19112;BME280;9688;51.906;8.376;2022-09-01T01:23:36;101302.19;;;17.29;55.57
19112;BME280;9688;51.906;8.376;2022-09-01T01:26:43;101312.09;;;17.27;54.99
19112;BME280;9688;51.906;8.376;2022-09-01T01:29:49;101315.03;;;17.22;55.16
19112;BME280;9688;51.906;8.376;2022-09-01T01:32:55;101319.50;;;17.22;55.55
19112;BME280;9688;51.906;8.376;2022-09-01T01:35:59;101318.66;;;17.21;55.35
19112;BME280;9688;51.906;8.376;2022-09-01T01:39:07;101319.69;;;17.19;55.88
19112;BME280;9688;51.906;8.376;2022-09-01T01:42:13;101315.25;;;17.17;56.04
19112;BME280;9688;51.906;8.376;2022-09-01T01:45:21;101315.44;;;17.14;55.58
19112;BME280;9688;51.906;8.376;2022-09-01T01:48:25;101325.34;;;17.12;56.30
19112;BME280;9688;51.906;8.376;2022-09-01T01:51:30;101326.22;;;17.13;56.19
19112;BME280;9688;51.906;8.376;2022-09-01T01:54:35;101332.59;;;17.10;56.11
19112;BME280;9688;51.906;8.376;2022-09-01T01:57:41;101326.28;;;17.11;55.63
19112;BME280;9688;51.906;8.376;2022-09-01T02:00:53;101324.59;;;17.10;55.85
19112;BME280;9688;51.906;8.376;2022-09-01T02:03:59;101322.94;;;17.08;56.62
19112;BME280;9688;51.906;8.376;2022-09-01T02:07:09;101320.34;;;17.06;56.00
19112;BME280;9688;51.906;8.376;2022-09-01T02:10:14;101334.56;;;17.07;56.20
19112;BME280;9688;51.906;8.376;2022-09-01T02:13:22;101329.31;;;17.05;56.10
19112;BME280;9688;51.906;8.376;2022-09-01T02:16:34;101326.88;;;17.01;56.25
19112;BME280;9688;51.906;8.376;2022-09-01T02:19:38;101328.94;;;16.95;56.42
19112;BME280;9688;51.906;8.376;2022-09-01T02:22:45;101332.63;;;16.93;56.44
19112;BME280;9688;51.906;8.376;2022-09-01T02:25:51;101325.91;;;16.86;57.17
19112;BME280;9688;51.906;8.376;2022-09-01T02:29:00;101322.59;;;16.81;56.88
19112;BME280;9688;51.906;8.376;2022-09-01T02:32:06;101329.06;;;16.77;57.02
19112;BME280;9688;51.906;8.376;2022-09-01T02:35:11;101330.13;;;16.72;57.92
19112;BME280;9688;51.906;8.376;2022-09-01T02:38:19;101330.28;;;16.69;57.78
19112;BME280;9688;51.906;8.376;2022-09-01T02:41:28;101330.34;;;16.68;57.57
19112;BME280;9688;51.906;8.376;2022-09-01T02:44:37;101322.50;;;16.65;58.17
19112;BME280;9688;51.906;8.376;2022-09-01T02:47:43;101315.53;;;16.62;57.83
19112;BME280;9688;51.906;8.376;2022-09-01T02:50:51;101323.69;;;16.59;58.09
19112;BME280;9688;51.906;8.376;2022-09-01T02:53:55;101325.63;;;16.57;58.37
19112;BME280;9688;51.906;8.376;2022-09-01T02:57:00;101315.06;;;16.54;58.32
19112;BME280;9688;51.906;8.376;2022-09-01T03:00:09;101316.09;;;16.51;58.58
19112;BME280;9688;51.906;8.376;2022-09-01T03:03:23;101329.69;;;16.47;58.78
19112;BME280;9688;51.906;8.376;2022-09-01T03:06:30;101316.66;;;16.41;58.51
19112;BME280;9688;51.906;8.376;2022-09-01T03:09:36;101320.41;;;16.37;59.04
19112;BME280;9688;51.906;8.376;2022-09-01T03:12:43;101309.91;;;16.34;59.49
19112;BME280;9688;51.906;8.376;2022-09-01T03:15:50;101309.06;;;16.33;59.30
19112;BME280;9688;51.906;8.376;2022-09-01T03:18:56;101307.47;;;16.29;59.31
19112;BME280;9688;51.906;8.376;2022-09-01T03:22:01;101316.50;;;16.26;59.95
19112;BME280;9688;51.906;8.376;2022-09-01T03:25:06;101308.47;;;16.26;59.65
19112;BME280;9688;51.906;8.376;2022-09-01T03:28:12;101303.47;;;16.20;59.89
19112;BME280;9688;51.906;8.376;2022-09-01T03:31:19;101306.53;;;16.13;60.19
19112;BME280;9688;51.906;8.376;2022-09-01T03:34:23;101311.25;;;16.08;60.79
19112;BME280;9688;51.906;8.376;2022-09-01T03:37:29;101301.75;;;16.02;61.21
19112;BME280;9688;51.906;8.376;2022-09-01T03:40:35;101301.88;;;15.99;61.19
19112;BME280;9688;51.906;8.376;2022-09-01T03:43:39;101308.25;;;15.96;61.50
19112;BME280;9688;51.906;8.376;2022-09-01T03:46:45;101305.72;;;15.93;61.36
19112;BME280;9688;51.906;8.376;2022-09-01T03:49:50;101311.94;;;15.94;61.67
19112;BME280;9688;51.906;8.376;2022-09-01T03:52:58;101306.59;;;15.94;61.70
19112;BME280;9688;51.906;8.376;2022-09-01T03:56:04;101306.59;;;15.94;61.92
19112;BME280;9688;51.906;8.376;2022-09-01T03:59:09;101307.47;;;15.94;61.89
19112;BME280;9688;51.906;8.376;2022-09-01T04:02:20;101305.59;;;15.96;62.01
19112;BME280;9688;51.906;8.376;2022-09-01T04:05:26;101311.78;;;15.97;61.73
19112;BME280;9688;51.906;8.376;2022-09-01T04:08:31;101313.59;;;15.96;61.70
19112;BME280;9688;51.906;8.376;2022-09-01T04:11:37;101311.94;;;15.94;61.81
19112;BME280;9688;51.906;8.376;2022-09-01T04:14:43;101311.94;;;15.94;62.35
19112;BME280;9688;51.906;8.376;2022-09-01T04:17:51;101317.19;;;15.95;62.38
19112;BME280;9688;51.906;8.376;2022-09-01T04:21:11;101318.13;;;15.94;62.50
19112;BME280;9688;51.906;8.376;2022-09-01T04:24:16;101311.22;;;15.90;62.43
19112;BME280;9688;51.906;8.376;2022-09-01T04:27:21;101314.88;;;15.88;62.41
19112;BME280;9688;51.906;8.376;2022-09-01T04:30:29;101311.66;;;15.81;62.95
19112;BME280;9688;51.906;8.376;2022-09-01T04:33:37;101313.69;;;15.76;62.77
19112;BME280;9688;51.906;8.376;2022-09-01T04:36:43;101314.00;;;15.70;63.35
19112;BME280;9688;51.906;8.376;2022-09-01T04:39:49;101312.47;;;15.64;63.23
19112;BME280;9688;51.906;8.376;2022-09-01T04:42:54;101314.44;;;15.60;63.77
19112;BME280;9688;51.906;8.376;2022-09-01T04:45:58;101315.59;;;15.55;64.04
19112;BME280;9688;51.906;8.376;2022-09-01T04:49:06;101310.53;;;15.49;64.35
19112;BME280;9688;51.906;8.376;2022-09-01T04:52:12;101310.75;;;15.44;64.25
19112;BME280;9688;51.906;8.376;2022-09-01T04:55:17;101311.69;;;15.43;64.42
19112;BME280;9688;51.906;8.376;2022-09-01T04:58:22;101307.34;;;15.40;64.75
19112;BME280;9688;51.906;8.376;2022-09-01T05:01:26;101308.66;;;15.32;64.62
19112;BME280;9688;51.906;8.376;2022-09-01T05:04:32;101313.78;;;15.17;65.38
19112;BME280;9688;51.906;8.376;2022-09-01T05:07:36;101311.56;;;15.08;66.11
19112;BME280;9688;51.906;8.376;2022-09-01T05:10:44;101307.13;;;15.07;66.00
19112;BME280;9688;51.906;8.376;2022-09-01T05:13:50;101312.97;;;15.15;66.05
19112;BME280;9688;51.906;8.376;2022-09-01T05:16:58;101308.16;;;15.24;65.93
19112;BME280;9688;51.906;8.376;2022-09-01T05:20:07;101306.09;;;15.30;65.77
19112;BME280;9688;51.906;8.376;2022-09-01T05:23:12;101306.44;;;15.42;65.55
19112;BME280;9688;51.906;8.376;2022-09-01T05:26:20;101303.47;;;15.48;65.55
19112;BME280;9688;51.906;8.376;2022-09-01T05:29:26;101302.38;;;15.52;65.81
19112;BME280;9688;51.906;8.376;2022-09-01T05:32:31;101307.59;;;15.55;65.77
19112;BME280;9688;51.906;8.376;2022-09-01T05:35:41;101306.44;;;15.60;65.86
19112;BME280;9688;51.906;8.376;2022-09-01T05:38:48;101304.31;;;15.67;66.11
19112;BME280;9688;51.906;8.376;2022-09-01T05:41:54;101300.38;;;15.76;65.79
19112;BME280;9688;51.906;8.376;2022-09-01T05:44:59;101299.13;;;15.83;65.83
19112;BME280;9688;51.906;8.376;2022-09-01T05:48:04;101305.72;;;15.93;66.14
19112;BME280;9688;51.906;8.376;2022-09-01T05:51:12;101305.13;;;16.05;66.05
19112;BME280;9688;51.906;8.376;2022-09-01T05:54:20;101309.06;;;16.16;65.39
19112;BME280;9688;51.906;8.376;2022-09-01T05:57:25;101307.63;;;16.26;65.25
19112;BME280;9688;51.906;8.376;2022-09-01T06:00:29;101322.13;;;16.38;65.63
19112;BME280;9688;51.906;8.376;2022-09-01T06:03:36;101321.59;;;16.48;64.98
19112;BME280;9688;51.906;8.376;2022-09-01T06:06:46;101315.16;;;16.53;65.25
19112;BME280;9688;51.906;8.376;2022-09-01T06:09:51;101315.69;;;16.59;65.26
19112;BME280;9688;51.906;8.376;2022-09-01T06:12:56;101316.25;;;16.66;64.95
19112;BME280;9688;51.906;8.376;2022-09-01T06:16:05;101315.72;;;16.77;65.15
19112;BME280;9688;51.906;8.376;2022-09-01T06:19:11;101307.03;;;16.89;64.63
19112;BME280;9688;51.906;8.376;2022-09-01T06:22:18;101302.03;;;16.99;64.66
19112;BME280;9688;51.906;8.376;2022-09-01T06:25:23;101310.44;;;17.08;64.26
19112;BME280;9688;51.906;8.376;2022-09-01T06:28:32;101311.50;;;17.22;64.27
19112;BME280;9688;51.906;8.376;2022-09-01T06:31:38;101309.69;;;17.38;64.16
19112;BME280;9688;51.906;8.376;2022-09-01T06:34:44;101313.66;;;17.47;64.30
19112;BME280;9688;51.906;8.376;2022-09-01T06:37:55;101309.50;;;17.57;63.44
19112;BME280;9688;51.906;8.376;2022-09-01T06:41:02;101310.03;;;17.64;63.68
19112;BME280;9688;51.906;8.376;2022-09-01T06:44:07;101323.72;;;17.73;63.14
19112;BME280;9688;51.906;8.376;2022-09-01T06:47:14;101317.13;;;17.80;62.91
19112;BME280;9688;51.906;8.376;2022-09-01T06:50:21;101322.97;;;17.87;63.56
19112;BME280;9688;51.906;8.376;2022-09-01T06:53:28;101320.53;;;17.98;63.07
19112;BME280;9688;51.906;8.376;2022-09-01T06:56:34;101322.41;;;18.12;62.84
19112;BME280;9688;51.906;8.376;2022-09-01T06:59:38;101330.66;;;18.23;62.09
19112;BME280;9688;51.906;8.376;2022-09-01T07:02:43;101324.41;;;18.39;61.78
19112;BME280;9688;51.906;8.376;2022-09-01T07:05:48;101323.50;;;18.54;61.20
19112;BME280;9688;51.906;8.376;2022-09-01T07:08:57;101328.16;;;18.65;61.12
19112;BME280;9688;51.906;8.376;2022-09-01T07:12:03;101326.00;;;18.71;60.78
19112;BME280;9688;51.906;8.376;2022-09-01T07:15:10;101329.19;;;18.78;60.35
19112;BME280;9688;51.906;8.376;2022-09-01T07:18:22;101331.19;;;18.89;59.93
19112;BME280;9688;51.906;8.376;2022-09-01T07:21:29;101330.63;;;18.98;59.75
19112;BME280;9688;51.906;8.376;2022-09-01T07:24:36;101329.28;;;19.05;59.24
19112;BME280;9688;51.906;8.376;2022-09-01T07:27:43;101325.16;;;19.14;59.31
19112;BME280;9688;51.906;8.376;2022-09-01T07:30:52;101327.25;;;19.23;58.88
19112;BME280;9688;51.906;8.376;2022-09-01T07:34:00;101325.44;;;19.38;58.78
19112;BME280;9688;51.906;8.376;2022-09-01T07:37:06;101332.47;;;19.53;58.10
19112;BME280;9688;51.906;8.376;2022-09-01T07:40:16;101325.69;;;19.62;57.90
19112;BME280;9688;51.906;8.376;2022-09-01T07:43:25;101325.19;;;19.70;57.46
19112;BME280;9688;51.906;8.376;2022-09-01T07:46:31;101336.28;;;19.78;57.18
19112;BME280;9688;51.906;8.376;2022-09-01T07:49:36;101323.53;;;19.81;56.99
19112;BME280;9688;51.906;8.376;2022-09-01T07:52:42;101318.84;;;19.98;56.79
19112;BME280;9688;51.906;8.376;2022-09-01T07:55:50;101321.59;;;20.11;56.42
19112;BME280;9688;51.906;8.376;2022-09-01T07:59:00;101324.06;;;20.14;56.45
19112;BME280;9688;51.906;8.376;2022-09-01T08:02:06;101322.78;;;20.19;56.41
19112;BME280;9688;51.906;8.376;2022-09-01T08:05:14;101325.06;;;20.25;56.08
19112;BME280;9688;51.906;8.376;2022-09-01T08:08:20;101321.75;;;20.35;55.79
19112;BME280;9688;51.906;8.376;2022-09-01T08:11:29;101320.25;;;20.43;55.52
19112;BME280;9688;51.906;8.376;2022-09-01T08:14:34;101323.97;;;20.55;55.12
19112;BME280;9688;51.906;8.376;2022-09-01T08:17:39;101323.97;;;20.68;55.01
19112;BME280;9688;51.906;8.376;2022-09-01T08:20:44;101323.88;;;20.82;54.61
19112;BME280;9688;51.906;8.376;2022-09-01T08:23:50;101332.25;;;20.90;53.71
19112;BME280;9688;51.906;8.376;2022-09-01T08:26:57;101324.59;;;21.10;53.10
19112;BME280;9688;51.906;8.376;2022-09-01T08:30:08;101322.00;;;21.21;52.64
19112;BME280;9688;51.906;8.376;2022-09-01T08:33:15;101313.78;;;21.35;52.28
19112;BME280;9688;51.906;8.376;2022-09-01T08:36:21;101318.09;;;21.51;51.86
19112;BME280;9688;51.906;8.376;2022-09-01T08:39:26;101320.50;;;21.67;51.23
19112;BME280;9688;51.906;8.376;2022-09-01T08:42:43;101306.41;;;21.87;50.37
19112;BME280;9688;51.906;8.376;2022-09-01T08:45:54;101318.53;;;22.17;49.71
19112;BME280;9688;51.906;8.376;2022-09-01T08:49:03;101310.09;;;22.45;48.96
19112;BME280;9688;51.906;8.376;2022-09-01T08:52:20;101309.00;;;22.59;48.40
19112;BME280;9688;51.906;8.376;2022-09-01T08:55:30;101308.88;;;22.61;48.10
19112;BME280;9688;51.906;8.376;2022-09-01T08:58:42;101312.22;;;22.64;48.08
19112;BME280;9688;51.906;8.376;2022-09-01T09:01:54;101316.09;;;22.60;48.42
19112;BME280;9688;51.906;8.376;2022-09-01T09:05:07;101321.63;;;22.59;48.12
19112;BME280;9688;51.906;8.376;2022-09-01T09:08:32;101319.91;;;22.58;48.07
19112;BME280;9688;51.906;8.376;2022-09-01T09:11:54;101320.03;;;22.56;47.98
19112;BME280;9688;51.906;8.376;2022-09-01T09:15:10;101316.94;;;22.49;48.13
19112;BME280;9688;51.906;8.376;2022-09-01T09:18:27;101317.59;;;22.53;47.62
19112;BME280;9688;51.906;8.376;2022-09-01T09:21:36;101311.31;;;22.53;47.04
19112;BME280;9688;51.906;8.376;2022-09-01T09:24:45;101312.66;;;22.58;46.76
19112;BME280;9688;51.906;8.376;2022-09-01T09:27:52;101314.50;;;22.58;46.63
19112;BME280;9688;51.906;8.376;2022-09-01T09:31:25;101304.56;;;22.47;46.05
19112;BME280;9688;51.906;8.376;2022-09-01T09:34:33;101313.38;;;22.49;45.62
19112;BME280;9688;51.906;8.376;2022-09-01T09:37:41;101303.22;;;22.53;45.46
19112;BME280;9688;51.906;8.376;2022-09-01T09:40:58;101299.44;;;22.55;45.48
19112;BME280;9688;51.906;8.376;2022-09-01T09:44:05;101301.53;;;22.74;45.43
19112;BME280;9688;51.906;8.376;2022-09-01T09:47:36;101296.41;;;22.82;44.81
19112;BME280;9688;51.906;8.376;2022-09-01T09:50:41;101298.50;;;22.90;44.60
19112;BME280;9688;51.906;8.376;2022-09-01T09:53:46;101296.34;;;23.06;44.22
19112;BME280;9688;51.906;8.376;2022-09-01T09:57:05;101298.16;;;23.17;43.70
19112;BME280;9688;51.906;8.376;2022-09-01T10:00:19;101292.75;;;23.28;43.81
19112;BME280;9688;51.906;8.376;2022-09-01T10:03:39;101300.63;;;23.20;43.58
19112;BME280;9688;51.906;8.376;2022-09-01T10:06:45;101298.41;;;23.25;43.01
19112;BME280;9688;51.906;8.376;2022-09-01T10:09:50;101291.88;;;23.39;42.80
19112;BME280;9688;51.906;8.376;2022-09-01T10:16:51;101286.22;;;23.42;42.43
19112;BME280;9688;51.906;8.376;2022-09-01T10:20:06;101281.47;;;23.23;42.66
19112;BME280;9688;51.906;8.376;2022-09-01T10:23:12;101275.09;;;23.24;42.46
19112;BME280;9688;51.906;8.376;2022-09-01T10:26:21;101279.97;;;23.30;42.55
19112;BME280;9688;51.906;8.376;2022-09-01T10:29:29;101272.38;;;23.35;42.30
19112;BME280;9688;51.906;8.376;2022-09-01T10:32:39;101265.25;;;23.46;41.94
19112;BME280;9688;51.906;8.376;2022-09-01T10:35:47;101267.09;;;23.45;41.60
19112;BME280;9688;51.906;8.376;2022-09-01T10:38:53;101263.91;;;23.40;41.60
19112;BME280;9688;51.906;8.376;2022-09-01T10:42:00;101266.94;;;23.47;40.97
19112;BME280;9688;51.906;8.376;2022-09-01T10:45:19;101264.47;;;23.55;40.82
19112;BME280;9688;51.906;8.376;2022-09-01T10:48:33;101266.53;;;23.63;40.57
19112;BME280;9688;51.906;8.376;2022-09-01T10:51:44;101267.78;;;23.58;40.68
19112;BME280;9688;51.906;8.376;2022-09-01T10:54:55;101255.38;;;23.67;40.14
19112;BME280;9688;51.906;8.376;2022-09-01T11:02:04;101250.44;;;24.25;38.68
19112;BME280;9688;51.906;8.376;2022-09-01T11:05:15;101254.19;;;24.34;38.26
19112;BME280;9688;51.906;8.376;2022-09-01T11:08:42;101251.44;;;24.45;38.06
19112;BME280;9688;51.906;8.376;2022-09-01T11:15:34;101248.91;;;24.33;37.70
19112;BME280;9688;51.906;8.376;2022-09-01T11:18:39;101249.44;;;24.26;37.58
19112;BME280;9688;51.906;8.376;2022-09-01T11:21:43;101251.94;;;24.39;37.04
19112;BME280;9688;51.906;8.376;2022-09-01T11:25:09;101242.00;;;24.40;36.84
19112;BME280;9688;51.906;8.376;2022-09-01T11:28:42;101243.06;;;24.48;36.64
19112;BME280;9688;51.906;8.376;2022-09-01T11:31:47;101245.22;;;24.55;36.07
19112;BME280;9688;51.906;8.376;2022-09-01T11:34:54;101240.25;;;24.50;36.15
19112;BME280;9688;51.906;8.376;2022-09-01T11:38:03;101243.56;;;24.42;36.68
19112;BME280;9688;51.906;8.376;2022-09-01T11:41:22;101240.69;;;24.34;37.24
19112;BME280;9688;51.906;8.376;2022-09-01T11:44:33;101241.22;;;24.49;37.09
19112;BME280;9688;51.906;8.376;2022-09-01T11:47:40;101241.91;;;24.72;37.07
19112;BME280;9688;51.906;8.376;2022-09-01T11:50:56;101244.53;;;24.83;36.90
19112;BME280;9688;51.906;8.376;2022-09-01T11:54:03;101239.81;;;24.85;36.89
19112;BME280;9688;51.906;8.376;2022-09-01T11:57:31;101236.59;;;25.01;36.88
19112;BME280;9688;51.906;8.376;2022-09-01T12:00:38;101243.00;;;25.00;36.98
19112;BME280;9688;51.906;8.376;2022-09-01T12:03:44;101243.69;;;24.92;36.69
19112;BME280;9688;51.906;8.376;2022-09-01T12:06:56;101244.16;;;24.98;36.11
19112;BME280;9688;51.906;8.376;2022-09-01T12:10:14;101243.59;;;25.13;35.96
19112;BME280;9688;51.906;8.376;2022-09-01T12:13:24;101235.16;;;25.37;35.29
19112;BME280;9688;51.906;8.376;2022-09-01T12:16:31;101228.75;;;25.39;35.19
19112;BME280;9688;51.906;8.376;2022-09-01T12:19:39;101235.31;;;25.46;34.73
19112;BME280;9688;51.906;8.376;2022-09-01T12:22:46;101220.66;;;25.58;34.23
19112;BME280;9688;51.906;8.376;2022-09-01T12:25:55;101219.22;;;25.73;34.13
19112;BME280;9688;51.906;8.376;2022-09-01T12:29:04;101207.38;;;26.03;33.49
19112;BME280;9688;51.906;8.376;2022-09-01T12:32:11;101223.06;;;26.19;33.30
19112;BME280;9688;51.906;8.376;2022-09-01T12:35:22;101215.47;;;26.13;33.40
19112;BME280;9688;51.906;8.376;2022-09-01T12:38:29;101216.53;;;25.83;33.49
19112;BME280;9688;51.906;8.376;2022-09-01T12:41:36;101216.94;;;25.59;33.99
19112;BME280;9688;51.906;8.376;2022-09-01T12:44:47;101210.81;;;25.47;33.75
19112;BME280;9688;51.906;8.376;2022-09-01T12:47:53;101211.47;;;25.30;34.21
19112;BME280;9688;51.906;8.376;2022-09-01T12:51:00;101201.25;;;25.43;33.84
19112;BME280;9688;51.906;8.376;2022-09-01T12:54:08;101197.28;;;25.86;33.43
19112;BME280;9688;51.906;8.376;2022-09-01T12:57:24;101195.94;;;26.19;33.31
19112;BME280;9688;51.906;8.376;2022-09-01T13:00:34;101192.03;;;26.41;32.95
19112;BME280;9688;51.906;8.376;2022-09-01T13:03:39;101194.13;;;26.47;32.90
19112;BME280;9688;51.906;8.376;2022-09-01T13:06:44;101192.25;;;26.11;33.17
19112;BME280;9688;51.906;8.376;2022-09-01T13:09:51;101187.59;;;25.84;33.83
19112;BME280;9688;51.906;8.376;2022-09-01T13:13:00;101183.56;;;25.78;33.51
19112;BME280;9688;51.906;8.376;2022-09-01T13:16:11;101181.44;;;25.62;33.84
19112;BME280;9688;51.906;8.376;2022-09-01T13:19:16;101184.00;;;25.54;34.12
19112;BME280;9688;51.906;8.376;2022-09-01T13:22:21;101179.00;;;25.69;34.07
19112;BME280;9688;51.906;8.376;2022-09-01T13:25:29;101181.16;;;25.75;34.24
19112;BME280;9688;51.906;8.376;2022-09-01T13:28:35;101172.31;;;25.53;34.36
19112;BME280;9688;51.906;8.376;2022-09-01T13:31:41;101174.88;;;25.26;34.62
19112;BME280;9688;51.906;8.376;2022-09-01T13:34:46;101175.38;;;25.00;34.97
19112;BME280;9688;51.906;8.376;2022-09-01T13:37:52;101173.34;;;24.92;35.29
19112;BME280;9688;51.906;8.376;2022-09-01T13:40:58;101166.97;;;25.03;35.08
19112;BME280;9688;51.906;8.376;2022-09-01T13:44:04;101155.72;;;24.98;34.87
19112;BME280;9688;51.906;8.376;2022-09-01T13:47:15;101162.53;;;25.02;34.64
19112;BME280;9688;51.906;8.376;2022-09-01T13:50:21;101165.25;;;25.02;34.63
19112;BME280;9688;51.906;8.376;2022-09-01T13:53:26;101166.59;;;25.18;34.45
19112;BME280;9688;51.906;8.376;2022-09-01T13:56:31;101154.34;;;25.33;34.41
19112;BME280;9688;51.906;8.376;2022-09-01T13:59:37;101159.66;;;25.44;34.49
19112;BME280;9688;51.906;8.376;2022-09-01T14:02:44;101153.66;;;25.50;34.22
19112;BME280;9688;51.906;8.376;2022-09-01T14:05:53;101145.25;;;25.53;34.09
19112;BME280;9688;51.906;8.376;2022-09-01T14:08:59;101150.38;;;25.47;34.03
19112;BME280;9688;51.906;8.376;2022-09-01T14:12:08;101152.81;;;25.30;34.03
19112;BME280;9688;51.906;8.376;2022-09-01T14:15:17;101139.53;;;25.27;33.55
19112;BME280;9688;51.906;8.376;2022-09-01T14:18:24;101140.56;;;25.17;34.21
19112;BME280;9688;51.906;8.376;2022-09-01T14:21:34;101146.81;;;25.27;34.01
19112;BME280;9688;51.906;8.376;2022-09-01T14:24:39;101139.56;;;25.37;33.84
19112;BME280;9688;51.906;8.376;2022-09-01T14:27:44;101133.00;;;25.40;33.67
19112;BME280;9688;51.906;8.376;2022-09-01T14:30:50;101131.84;;;25.42;33.47
19112;BME280;9688;51.906;8.376;2022-09-01T14:33:57;101128.69;;;25.47;33.32
19112;BME280;9688;51.906;8.376;2022-09-01T14:37:02;101127.69;;;25.57;33.36
19112;BME280;9688;51.906;8.376;2022-09-01T14:40:09;101128.13;;;25.63;33.13
19112;BME280;9688;51.906;8.376;2022-09-01T14:43:18;101124.44;;;25.64;32.89
19112;BME280;9688;51.906;8.376;2022-09-01T14:46:23;101120.16;;;25.51;33.01
19112;BME280;9688;51.906;8.376;2022-09-01T14:49:30;101122.75;;;25.53;32.76
19112;BME280;9688;51.906;8.376;2022-09-01T14:52:38;101118.03;;;25.45;32.40
19112;BME280;9688;51.906;8.376;2022-09-01T14:55:44;101120.44;;;25.48;32.63
19112;BME280;9688;51.906;8.376;2022-09-01T14:58:49;101106.50;;;25.53;32.61
19112;BME280;9688;51.906;8.376;2022-09-01T15:01:54;101114.75;;;25.51;32.74
19112;BME280;9688;51.906;8.376;2022-09-01T15:05:00;101111.31;;;25.30;33.04
19112;BME280;9688;51.906;8.376;2022-09-01T15:08:04;101111.63;;;25.27;32.97
19112;BME280;9688;51.906;8.376;2022-09-01T15:11:10;101105.91;;;25.30;32.93
19112;BME280;9688;51.906;8.376;2022-09-01T15:14:17;101101.94;;;25.34;33.03
19112;BME280;9688;51.906;8.376;2022-09-01T15:17:24;101105.34;;;25.26;33.36
19112;BME280;9688;51.906;8.376;2022-09-01T15:20:32;101097.66;;;25.22;33.25
19112;BME280;9688;51.906;8.376;2022-09-01T15:23:51;101096.53;;;25.34;33.42
19112;BME280;9688;51.906;8.376;2022-09-01T15:26:57;101096.81;;;25.50;33.16
19112;BME280;9688;51.906;8.376;2022-09-01T15:30:07;101083.09;;;25.62;32.77
19112;BME280;9688;51.906;8.376;2022-09-01T15:33:19;101094.66;;;25.64;32.91
19112;BME280;9688;51.906;8.376;2022-09-01T15:36:27;101083.78;;;25.73;32.73
19112;BME280;9688;51.906;8.376;2022-09-01T15:39:33;101080.34;;;25.91;32.60
19112;BME280;9688;51.906;8.376;2022-09-01T15:42:39;101077.09;;;25.77;32.85
19112;BME280;9688;51.906;8.376;2022-09-01T15:45:45;101085.22;;;25.68;32.92
19112;BME280;9688;51.906;8.376;2022-09-01T15:48:50;101077.69;;;25.52;33.32
19112;BME280;9688;51.906;8.376;2022-09-01T15:51:55;101083.28;;;25.31;33.58
19112;BME280;9688;51.906;8.376;2022-09-01T15:55:01;101078.44;;;25.15;33.89
19112;BME280;9688;51.906;8.376;2022-09-01T15:58:07;101079.81;;;25.09;33.94
19112;BME280;9688;51.906;8.376;2022-09-01T16:01:12;101072.56;;;25.10;33.84
19112;BME280;9688;51.906;8.376;2022-09-01T16:04:18;101083.53;;;25.08;33.98
19112;BME280;9688;51.906;8.376;2022-09-01T16:07:26;101074.69;;;24.97;34.06
19112;BME280;9688;51.906;8.376;2022-09-01T16:10:32;101074.00;;;24.95;34.25
19112;BME280;9688;51.906;8.376;2022-09-01T16:13:38;101063.72;;;24.88;34.22
19112;BME280;9688;51.906;8.376;2022-09-01T16:16:50;101067.59;;;24.86;34.17
19112;BME280;9688;51.906;8.376;2022-09-01T16:20:02;101059.72;;;24.83;34.29
19112;BME280;9688;51.906;8.376;2022-09-01T16:23:15;101065.56;;;24.88;33.98
19112;BME280;9688;51.906;8.376;2022-09-01T16:26:21;101065.00;;;24.94;34.09
19112;BME280;9688;51.906;8.376;2022-09-01T16:29:32;101063.16;;;24.95;33.89
19112;BME280;9688;51.906;8.376;2022-09-01T16:32:42;101056.88;;;24.84;34.04
19112;BME280;9688;51.906;8.376;2022-09-01T16:35:58;101057.75;;;24.75;34.53
19112;BME280;9688;51.906;8.376;2022-09-01T16:39:18;101058.28;;;24.69;34.30
19112;BME280;9688;51.906;8.376;2022-09-01T16:42:31;101057.00;;;24.63;34.51
19112;BME280;9688;51.906;8.376;2022-09-01T16:45:44;101047.47;;;24.59;34.44
19112;BME280;9688;51.906;8.376;2022-09-01T16:48:55;101057.13;;;24.52;34.46